Time;durP1;ratioP1;P1;durP2;ratioP2;P2;SDS_P1;SDS_P2;PMS_P1;PMS_P2;Temp;Humidity;BMP_temperature;BMP_pressure;BME280_temperature;BME280_humidity;BME280_pressure;Samples;Min_cycle;Max_cycle;Signal;HPM_P1;HPM_P2
2022/02/10 00:04:40;;;;;;;19.23;10.67;;;;;;;;;;5067222;28;20886;-72
2022/02/10 00:18:23;;;;;;;13.30;8.93;;;;;;;;;;5118618;28;20477;-72
2022/02/10 00:20:54;;;;;;;15.53;9.13;;;;;;;;;;5118239;28;20442;-72
2022/02/10 00:23:37;;;;;;;24.30;11.93;;;;;;;;;;5118799;28;20504;-72
2022/02/10 00:34:29;;;;;;;21.83;10.00;;;;;;;;;;5109858;28;20454;-72
2022/02/10 00:37:10;;;;;;;18.13;9.43;;;;;;;;;;5097189;28;20464;-72
2022/02/10 00:42:25;;;;;;;14.93;9.23;;;;;;;;;;5112322;28;20470;-72
2022/02/10 00:44:53;;;;;;;19.50;10.80;;;;;;;;;;5117875;28;20447;-72
2022/02/10 00:47:20;;;;;;;16.97;10.50;;;;;;;;;;5118223;28;20515;-72
2022/02/10 00:49:47;;;;;;;19.90;11.73;;;;;;;;;;5116024;28;20801;-72
2022/02/10 00:52:15;;;;;;;15.90;9.43;;;;;;;;;;5117583;28;20492;-72
2022/02/10 00:54:42;;;;;;;15.47;10.40;;;;;;;;;;5117531;28;20458;-72
2022/02/10 00:57:18;;;;;;;16.43;9.50;;;;;;;;;;5118039;28;20820;-72
2022/02/10 01:00:02;;;;;;;17.80;10.87;;;;;;;;;;5117930;28;20451;-72
2022/02/10 01:11:20;;;;;;;19.47;10.60;;;;;;;;;;5078347;28;20490;-72
2022/02/10 01:30:40;;;;;;;14.70;9.50;;;;;;;;;;5109047;28;20559;-72
2022/02/10 01:33:09;;;;;;;18.33;10.43;;;;;;;;;;5097426;28;20505;-73
2022/02/10 01:35:37;;;;;;;20.53;10.93;;;;;;;;;;5099608;28;20501;-73
2022/02/10 01:38:05;;;;;;;19.20;11.10;;;;;;;;;;5117494;28;20897;-72
2022/02/10 01:40:54;;;;;;;24.80;12.40;;;;;;;;;;5114520;28;20451;-72
2022/02/10 02:05:46;;;;;;;16.23;10.43;;;;;;;;;;5096312;28;20517;-73
2022/02/10 02:08:14;;;;;;;19.93;11.83;;;;;;;;;;5102905;28;20459;-72
2022/02/10 02:10:42;;;;;;;20.40;11.40;;;;;;;;;;5116593;28;20508;-72
2022/02/10 02:13:12;;;;;;;19.60;11.07;;;;;;;;;;5110411;28;20474;-72
2022/02/10 02:15:39;;;;;;;21.23;11.97;;;;;;;;;;5097204;28;20458;-72
2022/02/10 02:18:06;;;;;;;18.00;11.37;;;;;;;;;;5097338;28;20495;-73
2022/02/10 02:20:33;;;;;;;19.03;11.20;;;;;;;;;;5096497;28;20475;-72
2022/02/10 02:23:01;;;;;;;22.40;11.53;;;;;;;;;;5111505;28;20914;-73
2022/02/10 02:25:28;;;;;;;21.07;9.67;;;;;;;;;;5116837;28;20521;-72
2022/02/10 02:27:57;;;;;;;19.43;9.70;;;;;;;;;;5116799;28;20490;-72
2022/02/10 02:30:34;;;;;;;20.00;10.40;;;;;;;;;;5116814;28;20455;-72
2022/02/10 02:33:31;;;;;;;16.90;10.37;;;;;;;;;;5115748;28;20547;-72
2022/02/10 02:36:37;;;;;;;15.80;10.20;;;;;;;;;;5117209;28;20455;-73
2022/02/10 03:04:13;;;;;;;18.57;10.03;;;;;;;;;;5075984;28;20441;-73
2022/02/10 03:06:41;;;;;;;19.93;8.90;;;;;;;;;;5075704;28;20466;-73
2022/02/10 03:09:10;;;;;;;13.20;7.80;;;;;;;;;;5075262;28;20876;-73
2022/02/10 03:11:40;;;;;;;21.50;10.37;;;;;;;;;;5076001;28;20471;-73
2022/02/10 03:14:10;;;;;;;13.43;8.10;;;;;;;;;;5075485;28;20460;-73
2022/02/10 03:17:05;;;;;;;16.23;8.77;;;;;;;;;;5079106;28;20450;-73
2022/02/10 03:19:51;;;;;;;13.90;8.67;;;;;;;;;;5096232;28;20934;-73
2022/02/10 03:22:34;;;;;;;21.50;8.30;;;;;;;;;;5096143;28;20522;-73
2022/02/10 04:01:40;;;;;;;13.10;7.10;;;;;;;;;;5092011;28;20466;-74
2022/02/10 04:04:17;;;;;;;12.87;6.53;;;;;;;;;;5093796;28;20825;-73
2022/02/10 04:15:21;;;;;;;12.30;6.97;;;;;;;;;;5096423;28;20556;-73
2022/02/10 04:18:18;;;;;;;12.03;8.43;;;;;;;;;;5104198;28;20462;-73
2022/02/10 04:20:55;;;;;;;14.00;7.33;;;;;;;;;;5116678;28;20469;-73
2022/02/10 04:23:37;;;;;;;13.63;7.67;;;;;;;;;;5097985;28;20916;-73
2022/02/10 04:26:19;;;;;;;16.27;8.60;;;;;;;;;;5097470;28;20777;-73
2022/02/10 04:29:14;;;;;;;12.00;7.23;;;;;;;;;;5078170;28;20452;-73
2022/02/10 04:37:41;;;;;;;12.00;7.47;;;;;;;;;;5097924;28;20446;-73
2022/02/10 04:43:21;;;;;;;12.93;7.77;;;;;;;;;;5098766;28;20565;-74
2022/02/10 04:59:50;;;;;;;15.50;8.03;;;;;;;;;;5077189;28;20510;-73
2022/02/10 05:08:47;;;;;;;15.57;8.60;;;;;;;;;;5064906;28;20784;-73
2022/02/10 05:22:39;;;;;;;31.63;15.13;;;;;;;;;;5076960;28;20487;-74
2022/02/10 05:33:36;;;;;;;32.83;16.50;;;;;;;;;;5093712;28;20933;-73
2022/02/10 05:36:14;;;;;;;35.63;18.10;;;;;;;;;;5090238;28;20437;-73
2022/02/10 05:38:47;;;;;;;33.47;17.83;;;;;;;;;;5076841;28;20562;-73
2022/02/10 05:55:41;;;;;;;33.63;19.57;;;;;;;;;;5096037;28;20504;-73
2022/02/10 05:58:19;;;;;;;33.17;19.73;;;;;;;;;;5096227;28;20446;-73
2022/02/10 06:51:19;;;;;;;47.40;20.43;;;;;;;;;;5113309;28;20438;-73
2022/02/10 06:53:56;;;;;;;40.33;20.33;;;;;;;;;;5113188;28;20454;-73
2022/02/10 07:05:27;;;;;;;38.27;18.13;;;;;;;;;;5092036;28;20513;-73
2022/02/10 07:11:05;;;;;;;29.00;17.93;;;;;;;;;;5076592;28;20510;-73
2022/02/10 07:14:12;;;;;;;36.80;17.97;;;;;;;;;;5093918;28;20444;-73
2022/02/10 07:17:13;;;;;;;26.10;15.63;;;;;;;;;;5112345;28;20454;-74
2022/02/10 07:56:12;;;;;;;6.43;4.43;;;;;;;;;;5073881;28;20459;-74
2022/02/10 08:04:38;;;;;;;7.30;4.57;;;;;;;;;;5081632;28;20450;-74
2022/02/10 08:57:21;;;;;;;9.13;6.40;;;;;;;;;;5080515;28;20489;-75
2022/02/10 09:00:27;;;;;;;5.40;4.43;;;;;;;;;;5078902;28;20460;-75
2022/02/10 09:05:49;;;;;;;8.17;6.07;;;;;;;;;;5096812;28;20458;-74
2022/02/10 09:11:40;;;;;;;5.20;4.27;;;;;;;;;;5091651;28;20896;-76
2022/02/10 09:14:36;;;;;;;7.07;4.50;;;;;;;;;;5089704;28;20841;-75
2022/02/10 09:48:08;;;;;;;8.77;6.10;;;;;;;;;;5080608;28;20884;-75
2022/02/10 09:57:08;;;;;;;17.33;10.13;;;;;;;;;;5055500;28;20965;-74
2022/02/10 09:59:56;;;;;;;16.70;10.43;;;;;;;;;;5107435;28;20453;-75
2022/02/10 10:02:32;;;;;;;9.77;6.33;;;;;;;;;;5114043;27;20482;-76
2022/02/10 10:05:32;;;;;;;13.20;8.17;;;;;;;;;;5115391;28;20439;-74
2022/02/10 10:08:29;;;;;;;23.50;14.03;;;;;;;;;;5101095;28;20748;-74
2022/02/10 10:11:46;;;;;;;17.80;10.60;;;;;;;;;;5104557;28;20544;-74
2022/02/10 10:14:19;;;;;;;14.97;8.97;;;;;;;;;;5077425;28;20457;-73
2022/02/10 10:17:08;;;;;;;10.63;8.00;;;;;;;;;;5093935;28;20494;-75
2022/02/10 10:19:45;;;;;;;14.07;8.03;;;;;;;;;;5110642;28;20450;-75
2022/02/10 10:22:30;;;;;;;12.23;7.30;;;;;;;;;;5108956;28;20475;-76
2022/02/10 10:25:23;;;;;;;14.50;9.70;;;;;;;;;;5102044;28;20471;-74
2022/02/10 10:51:12;;;;;;;8.37;5.40;;;;;;;;;;5090528;28;20481;-73
2022/02/10 10:53:48;;;;;;;8.93;5.70;;;;;;;;;;5114201;28;20691;-73
2022/02/10 10:56:20;;;;;;;11.97;8.03;;;;;;;;;;5114593;28;21049;-73
2022/02/10 10:59:10;;;;;;;8.13;5.63;;;;;;;;;;5087280;28;20632;-74
2022/02/10 11:38:45;;;;;;;7.27;5.50;;;;;;;;;;5071962;28;20440;-73
2022/02/10 11:44:45;;;;;;;13.87;6.07;;;;;;;;;;5066559;28;20455;-74
2022/02/10 12:29:22;;;;;;;10.33;6.67;;;;;;;;;;5087960;28;20544;-73
2022/02/10 13:28:09;;;;;;;8.67;6.40;;;;;;;;;;5060513;28;20431;-74
2022/02/10 14:14:13;;;;;;;14.00;6.80;;;;;;;;;;5004477;28;20454;-73
2022/02/10 14:16:57;;;;;;;12.10;7.07;;;;;;;;;;5037987;28;20530;-74
2022/02/10 14:19:38;;;;;;;8.10;5.33;;;;;;;;;;5051698;28;20479;-74
2022/02/10 14:22:10;;;;;;;8.40;5.40;;;;;;;;;;5091339;28;20556;-72
2022/02/10 14:27:22;;;;;;;10.23;5.17;;;;;;;;;;5082090;28;20512;-73
2022/02/10 14:29:51;;;;;;;5.17;3.10;;;;;;;;;;5092713;28;20959;-74
2022/02/10 14:32:23;;;;;;;9.57;5.83;;;;;;;;;;5080184;28;21008;-73
2022/02/10 14:34:52;;;;;;;15.73;5.90;;;;;;;;;;5074092;28;20502;-73
2022/02/10 14:37:35;;;;;;;8.17;6.43;;;;;;;;;;5080822;28;20554;-73
2022/02/10 14:40:12;;;;;;;8.77;4.90;;;;;;;;;;5082287;28;20489;-74
2022/02/10 15:16:52;;;;;;;6.27;4.10;;;;;;;;;;5087933;28;20455;-73
2022/02/10 15:53:25;;;;;;;8.63;5.87;;;;;;;;;;5081919;28;20451;-74
2022/02/10 15:56:22;;;;;;;12.33;7.03;;;;;;;;;;5090568;28;20454;-74
2022/02/10 16:16:31;;;;;;;10.00;5.57;;;;;;;;;;5076722;28;20468;-72
2022/02/10 16:18:48;;;;;;;15.40;7.63;;;;;;;;;;5086126;28;20543;-73
2022/02/10 16:21:30;;;;;;;10.33;5.93;;;;;;;;;;5077333;28;20540;-73
2022/02/10 16:24:02;;;;;;;8.70;6.13;;;;;;;;;;5078531;28;20575;-72
2022/02/10 16:26:52;;;;;;;7.63;6.27;;;;;;;;;;5095251;28;20462;-73
2022/02/10 16:29:25;;;;;;;13.53;9.23;;;;;;;;;;5091977;28;20739;-72
2022/02/10 16:31:53;;;;;;;7.90;6.33;;;;;;;;;;5088058;28;20817;-74
2022/02/10 16:34:21;;;;;;;11.23;7.27;;;;;;;;;;5092324;28;20454;-73
2022/02/10 16:36:48;;;;;;;9.70;6.10;;;;;;;;;;5079910;28;20752;-75
2022/02/10 16:39:16;;;;;;;7.50;5.00;;;;;;;;;;5087663;28;20883;-73
2022/02/10 16:41:43;;;;;;;11.20;6.93;;;;;;;;;;5094120;28;20443;-73
2022/02/10 16:44:10;;;;;;;10.03;5.67;;;;;;;;;;5094179;28;20556;-73
2022/02/10 16:46:38;;;;;;;9.10;5.97;;;;;;;;;;5115642;28;20511;-72
2022/02/10 16:49:09;;;;;;;11.73;6.50;;;;;;;;;;5115240;28;20481;-74
2022/02/10 16:51:44;;;;;;;10.57;6.63;;;;;;;;;;5110877;28;20812;-74
2022/02/10 16:54:22;;;;;;;7.30;5.27;;;;;;;;;;5095007;28;20512;-74
2022/02/10 16:57:02;;;;;;;10.60;5.80;;;;;;;;;;5077714;28;20504;-74
2022/02/10 16:59:42;;;;;;;11.10;6.90;;;;;;;;;;5075593;28;20468;-73
2022/02/10 17:05:19;;;;;;;10.60;5.00;;;;;;;;;;5074354;28;20461;-73
2022/02/10 17:17:12;;;;;;;12.07;4.97;;;;;;;;;;5094160;28;20467;-74
2022/02/10 17:19:28;;;;;;;12.70;4.77;;;;;;;;;;5099495;28;20534;-71
2022/02/10 17:27:29;;;;;;;7.30;4.30;;;;;;;;;;5111750;28;20446;-71
2022/02/10 17:33:12;;;;;;;5.23;3.70;;;;;;;;;;5107963;28;20565;-73
2022/02/10 17:36:02;;;;;;;8.57;4.50;;;;;;;;;;5114374;28;20455;-71
2022/02/10 17:41:34;;;;;;;7.63;4.87;;;;;;;;;;5095016;28;20818;-74
2022/02/10 17:44:19;;;;;;;12.57;4.50;;;;;;;;;;5095087;28;20810;-71
2022/02/10 17:52:24;;;;;;;8.70;6.13;;;;;;;;;;5095221;28;20430;-71
2022/02/10 17:54:53;;;;;;;9.90;4.30;;;;;;;;;;5096490;28;20452;-71
2022/02/10 17:57:20;;;;;;;13.07;5.90;;;;;;;;;;5097451;28;20512;-72
2022/02/10 17:59:48;;;;;;;10.10;6.73;;;;;;;;;;5111357;28;20831;-72
2022/02/10 18:02:16;;;;;;;11.00;5.87;;;;;;;;;;5114255;28;20942;-72
2022/02/10 18:04:43;;;;;;;11.90;7.03;;;;;;;;;;5102651;28;20464;-71
2022/02/10 18:07:12;;;;;;;9.17;2.93;;;;;;;;;;5096260;28;20448;-72
2022/02/10 18:15:12;;;;;;;10.93;6.30;;;;;;;;;;5075152;28;20444;-71
2022/02/10 18:17:48;;;;;;;14.03;6.57;;;;;;;;;;5074057;28;20505;-72
2022/02/10 18:20:20;;;;;;;5.50;3.67;;;;;;;;;;5084103;28;20455;-71
2022/02/10 18:22:59;;;;;;;17.70;8.03;;;;;;;;;;5093544;28;20561;-71
2022/02/10 18:28:30;;;;;;;8.20;6.23;;;;;;;;;;5084590;28;20458;-72
2022/02/10 18:34:34;;;;;;;7.73;3.60;;;;;;;;;;5049116;28;20440;-71
2022/02/10 19:07:33;;;;;;;9.37;6.37;;;;;;;;;;5095780;28;20434;-72
2022/02/10 19:10:01;;;;;;;9.50;6.57;;;;;;;;;;5114260;28;20462;-72
2022/02/10 19:12:31;;;;;;;14.40;8.10;;;;;;;;;;5114483;28;20719;-72
2022/02/10 19:15:08;;;;;;;10.07;6.00;;;;;;;;;;5101014;28;20554;-72
2022/02/10 19:17:36;;;;;;;12.03;8.00;;;;;;;;;;5078391;28;20440;-71
2022/02/10 19:20:03;;;;;;;7.40;6.60;;;;;;;;;;5072939;28;20525;-72
2022/02/10 19:22:31;;;;;;;5.37;4.37;;;;;;;;;;5074635;28;20488;-71
2022/02/10 19:24:58;;;;;;;16.33;7.73;;;;;;;;;;5074242;28;20738;-72
2022/02/10 19:27:25;;;;;;;6.33;5.73;;;;;;;;;;5074237;28;20548;-72
2022/02/10 19:29:57;;;;;;;10.00;7.20;;;;;;;;;;5076123;28;20460;-71
2022/02/10 19:32:27;;;;;;;5.60;3.90;;;;;;;;;;5076420;28;20484;-72
2022/02/10 19:34:56;;;;;;;5.57;4.27;;;;;;;;;;5077800;28;20466;-72
2022/02/10 19:37:37;;;;;;;7.10;5.93;;;;;;;;;;5091351;28;20481;-71
2022/02/10 19:43:01;;;;;;;5.93;3.37;;;;;;;;;;5098449;28;20479;-71
2022/02/10 19:45:39;;;;;;;7.33;6.57;;;;;;;;;;5091742;28;20543;-71
2022/02/10 19:48:19;;;;;;;7.47;6.77;;;;;;;;;;5077400;28;20448;-71
2022/02/10 19:51:05;;;;;;;5.40;3.80;;;;;;;;;;5078196;28;20444;-72
2022/02/10 19:53:43;;;;;;;7.37;5.50;;;;;;;;;;5077797;28;20528;-71
2022/02/10 19:56:21;;;;;;;7.33;6.73;;;;;;;;;;5078011;28;20551;-73
2022/02/10 19:58:50;;;;;;;5.30;4.23;;;;;;;;;;5078375;28;20558;-71
2022/02/10 20:01:23;;;;;;;11.73;7.33;;;;;;;;;;5077149;28;20728;-70
2022/02/10 20:03:57;;;;;;;8.33;6.83;;;;;;;;;;5078096;28;20487;-70
2022/02/10 20:06:32;;;;;;;8.83;4.17;;;;;;;;;;5078471;28;20487;-71
2022/02/10 20:09:08;;;;;;;15.33;5.70;;;;;;;;;;5077366;28;20448;-71
2022/02/10 20:11:55;;;;;;;8.80;4.80;;;;;;;;;;5077219;28;20447;-71
2022/02/10 20:14:44;;;;;;;6.90;4.93;;;;;;;;;;5073844;28;20471;-70
2022/02/10 20:17:11;;;;;;;10.60;8.10;;;;;;;;;;5074849;28;20547;-72
2022/02/10 20:19:39;;;;;;;7.40;6.70;;;;;;;;;;5077379;28;20842;-71
2022/02/10 20:22:10;;;;;;;11.50;8.30;;;;;;;;;;5076595;28;20540;-72
2022/02/10 20:24:48;;;;;;;8.97;6.53;;;;;;;;;;5078672;28;20491;-70
2022/02/10 20:27:44;;;;;;;15.70;14.40;;;;;;;;;;5078885;28;20499;-71
2022/02/10 20:30:16;;;;;;;14.37;13.30;;;;;;;;;;5077727;28;20630;-70
2022/02/10 20:32:56;;;;;;;19.30;17.90;;;;;;;;;;5078166;28;20456;-71
2022/02/10 20:35:23;;;;;;;17.10;16.00;;;;;;;;;;5076080;28;20550;-71
2022/02/10 20:38:01;;;;;;;21.17;19.90;;;;;;;;;;5077647;28;20956;-71
2022/02/10 20:40:40;;;;;;;28.30;25.80;;;;;;;;;;5078823;28;20740;-71
2022/02/10 20:43:17;;;;;;;24.83;23.03;;;;;;;;;;5078948;28;20490;-70
2022/02/10 20:45:55;;;;;;;12.03;11.43;;;;;;;;;;5078297;28;20440;-70
2022/02/10 20:48:27;;;;;;;15.60;14.13;;;;;;;;;;5078504;28;20460;-71
2022/02/10 20:50:59;;;;;;;31.30;27.90;;;;;;;;;;5077518;28;20461;-71
2022/02/10 20:53:26;;;;;;;27.23;25.07;;;;;;;;;;5078349;28;20485;-73
2022/02/10 20:55:56;;;;;;;28.33;25.63;;;;;;;;;;5078061;28;20452;-70
2022/02/10 20:58:25;;;;;;;24.60;22.80;;;;;;;;;;5079241;28;20456;-71
2022/02/10 21:00:56;;;;;;;18.27;16.67;;;;;;;;;;5076030;28;20497;-72
2022/02/10 21:03:27;;;;;;;12.10;11.07;;;;;;;;;;5078375;28;20912;-72
2022/02/10 21:06:07;;;;;;;10.87;9.43;;;;;;;;;;5087809;28;20452;-70
2022/02/10 21:08:42;;;;;;;16.27;13.23;;;;;;;;;;5099170;28;20481;-72
2022/02/10 21:11:11;;;;;;;9.70;8.63;;;;;;;;;;5099619;28;20507;-71
2022/02/10 21:13:39;;;;;;;13.63;7.80;;;;;;;;;;5099641;28;20501;-71
2022/02/10 21:16:16;;;;;;;10.93;8.70;;;;;;;;;;5097075;28;20444;-70
2022/02/10 21:18:47;;;;;;;14.83;13.43;;;;;;;;;;5094167;28;20592;-71
2022/02/10 21:21:17;;;;;;;13.00;11.93;;;;;;;;;;5081691;28;20452;-70
2022/02/10 21:23:51;;;;;;;18.00;16.73;;;;;;;;;;5092993;28;20519;-72
2022/02/10 21:26:21;;;;;;;18.37;16.80;;;;;;;;;;5089202;28;20489;-72
2022/02/10 21:28:50;;;;;;;19.30;14.50;;;;;;;;;;5097271;28;20452;-72
2022/02/10 21:31:18;;;;;;;12.80;11.73;;;;;;;;;;5096320;28;20578;-72
2022/02/10 21:33:55;;;;;;;9.50;8.60;;;;;;;;;;5095743;28;20505;-72
2022/02/10 21:36:49;;;;;;;11.40;7.63;;;;;;;;;;5096072;28;20584;-72
2022/02/10 21:39:33;;;;;;;18.27;13.57;;;;;;;;;;5096782;28;20443;-72
2022/02/10 21:47:51;;;;;;;11.97;10.87;;;;;;;;;;5092855;28;20489;-72
2022/02/10 22:10:18;;;;;;;15.93;14.33;;;;;;;;;;5134009;27;20544;-72
2022/02/10 22:18:48;;;;;;;15.23;14.00;;;;;;;;;;5133156;27;20708;-71
2022/02/10 22:21:19;;;;;;;19.33;14.40;;;;;;;;;;5133269;27;20446;-73
2022/02/10 22:23:48;;;;;;;18.77;13.33;;;;;;;;;;5124055;27;20458;-71
2022/02/10 22:26:25;;;;;;;13.57;12.10;;;;;;;;;;5121214;27;20533;-72
2022/02/10 22:29:01;;;;;;;11.30;10.17;;;;;;;;;;5133081;27;20564;-73
2022/02/10 22:31:46;;;;;;;16.83;15.43;;;;;;;;;;5133637;27;20457;-72
2022/02/10 22:34:29;;;;;;;17.90;16.10;;;;;;;;;;5134336;27;20464;-72
2022/02/10 22:36:59;;;;;;;18.33;16.50;;;;;;;;;;5133662;27;20469;-71
2022/02/10 22:39:28;;;;;;;18.93;16.67;;;;;;;;;;5132974;27;20518;-72
2022/02/10 22:41:57;;;;;;;20.97;19.63;;;;;;;;;;5133013;27;20456;-71
2022/02/10 22:44:30;;;;;;;24.40;22.70;;;;;;;;;;5132271;27;20462;-71
2022/02/10 22:46:58;;;;;;;28.10;25.90;;;;;;;;;;5133320;27;20724;-71
2022/02/10 22:49:25;;;;;;;28.93;26.43;;;;;;;;;;5132599;27;20488;-71
2022/02/10 22:51:53;;;;;;;20.37;18.67;;;;;;;;;;5133166;27;20442;-71
2022/02/10 22:54:21;;;;;;;22.40;20.63;;;;;;;;;;5132369;27;20488;-71
2022/02/10 22:56:49;;;;;;;23.43;21.63;;;;;;;;;;5133416;27;20458;-71
2022/02/10 22:59:19;;;;;;;24.40;21.93;;;;;;;;;;5126227;27;20462;-71
2022/02/10 23:01:47;;;;;;;18.67;17.30;;;;;;;;;;5133266;27;20476;-71
2022/02/10 23:04:15;;;;;;;18.00;16.33;;;;;;;;;;5133187;27;20454;-71
2022/02/10 23:06:48;;;;;;;18.73;14.80;;;;;;;;;;5132602;27;20980;-71
2022/02/10 23:09:29;;;;;;;17.93;16.60;;;;;;;;;;5146462;27;20770;-71
2022/02/10 23:11:57;;;;;;;18.93;14.63;;;;;;;;;;5152533;27;20452;-71
2022/02/10 23:14:26;;;;;;;17.00;14.87;;;;;;;;;;5152427;27;20460;-71
2022/02/10 23:16:56;;;;;;;33.00;30.07;;;;;;;;;;5152359;27;20479;-71
2022/02/10 23:19:23;;;;;;;14.50;13.50;;;;;;;;;;5151101;27;20583;-71
2022/02/10 23:21:54;;;;;;;18.20;17.07;;;;;;;;;;5139114;27;20454;-71
2022/02/10 23:24:22;;;;;;;19.57;17.70;;;;;;;;;;5139394;27;20714;-71
2022/02/10 23:26:50;;;;;;;18.10;15.97;;;;;;;;;;5138622;27;20497;-71
2022/02/10 23:29:18;;;;;;;21.97;19.70;;;;;;;;;;5138624;27;20770;-71
2022/02/10 23:31:47;;;;;;;19.00;17.00;;;;;;;;;;5138976;27;20937;-71
2022/02/10 23:34:15;;;;;;;19.23;17.47;;;;;;;;;;5138959;27;20718;-71
2022/02/10 23:36:47;;;;;;;22.40;19.80;;;;;;;;;;5139124;27;20791;-71
2022/02/10 23:39:19;;;;;;;24.63;22.53;;;;;;;;;;5138567;27;20434;-71
2022/02/10 23:41:57;;;;;;;18.57;17.27;;;;;;;;;;5138044;27;20508;-71
2022/02/10 23:44:30;;;;;;;23.30;21.07;;;;;;;;;;5138692;27;20723;-71
2022/02/10 23:47:01;;;;;;;16.90;15.70;;;;;;;;;;5138981;27;20454;-71
2022/02/10 23:49:31;;;;;;;17.00;15.37;;;;;;;;;;5139051;27;20481;-71
2022/02/10 23:52:03;;;;;;;25.80;23.57;;;;;;;;;;5138392;27;20519;-71
2022/02/10 23:54:31;;;;;;;18.07;16.17;;;;;;;;;;5138618;27;20525;-71
2022/02/10 23:57:04;;;;;;;18.33;16.73;;;;;;;;;;5138319;27;20450;-71
